createdAt,value
2022-08-22T00:02:51.871Z,14.4
2022-08-22T00:02:52.116Z,13.2
2022-08-22T00:04:06.602Z,15.6
2022-08-22T00:09:55.660Z,13.2
2022-08-22T00:15:42.806Z,5.9
2022-08-22T00:21:07.032Z,2.4
2022-08-22T00:26:46.673Z,0
2022-08-22T00:32:03.307Z,4.8
2022-08-22T00:37:55.621Z,2.4
2022-08-22T00:43:26.951Z,3.6
2022-08-22T00:49:16.855Z,4.8
2022-08-22T00:54:28.181Z,0
2022-08-22T01:00:10.201Z,0
2022-08-22T01:06:01.545Z,2.4
2022-08-22T01:11:38.157Z,3.6
2022-08-22T01:16:44.923Z,0
2022-08-22T01:22:24.769Z,4.8
2022-08-22T01:28:09.745Z,5.9
2022-08-22T01:33:49.941Z,5.9
2022-08-22T01:39:17.213Z,4.8
2022-08-22T01:44:47.866Z,7.2
2022-08-22T01:50:27.397Z,8.4
2022-08-22T01:55:52.417Z,8.4
2022-08-22T02:01:39.000Z,7.2
2022-08-22T02:07:14.455Z,5.9
2022-08-22T02:12:44.353Z,5.9
2022-08-22T02:18:38.223Z,4.8
2022-08-22T02:24:03.103Z,3.6
2022-08-22T02:29:40.632Z,0
2022-08-22T02:35:23.316Z,0
2022-08-22T02:40:32.972Z,0
2022-08-22T02:46:28.617Z,0
2022-08-22T02:51:46.408Z,0
2022-08-22T02:57:36.226Z,0
2022-08-22T03:03:01.526Z,0
2022-08-22T03:08:36.662Z,0
2022-08-22T03:13:58.318Z,0
2022-08-22T03:19:31.853Z,0
2022-08-22T03:25:21.449Z,0
2022-08-22T03:30:51.092Z,0
2022-08-22T03:36:14.113Z,0
2022-08-22T03:42:02.975Z,0
2022-08-22T03:47:30.434Z,0
2022-08-22T03:53:18.901Z,0
2022-08-22T03:58:54.642Z,0
2022-08-22T04:04:26.718Z,0
2022-08-22T04:09:58.978Z,0
2022-08-22T04:15:21.134Z,0
2022-08-22T04:21:10.411Z,0
2022-08-22T04:26:36.682Z,0
2022-08-22T04:32:00.958Z,0
2022-08-22T04:37:57.961Z,0
2022-08-22T04:43:13.983Z,0
2022-08-22T04:48:55.005Z,5.9
2022-08-22T04:54:29.117Z,7.2
2022-08-22T05:00:13.378Z,7.2
2022-08-22T05:05:47.368Z,5.9
2022-08-22T05:11:17.972Z,4.8
2022-08-22T05:16:51.721Z,3.6
2022-08-22T05:22:26.051Z,0
2022-08-22T05:27:47.352Z,0
2022-08-22T05:33:40.189Z,0
2022-08-22T05:39:07.607Z,0
2022-08-22T05:44:40.873Z,0
2022-08-22T05:56:04.515Z,5.9
2022-08-22T06:01:21.751Z,7.2
2022-08-22T06:07:07.969Z,5.9
2022-08-22T06:12:44.949Z,5.9
2022-08-22T06:18:17.619Z,4.8
2022-08-22T06:23:48.081Z,4.8
2022-08-22T06:29:32.635Z,4.8
2022-08-22T06:34:51.682Z,4.8
2022-08-22T06:40:33.846Z,4.8
2022-08-22T06:46:24.002Z,4.8
2022-08-22T06:51:44.394Z,2.4
2022-08-22T06:57:12.350Z,4.8
2022-08-22T07:03:08.218Z,2.4
2022-08-22T07:08:33.185Z,0
2022-08-22T07:13:59.100Z,4.8
2022-08-22T07:19:32.928Z,2.4
2022-08-22T07:25:21.641Z,2.4
2022-08-22T07:30:52.654Z,3.6
2022-08-22T07:36:31.893Z,5.9
2022-08-22T07:42:13.308Z,7.2
2022-08-22T07:47:42.382Z,5.9
2022-08-22T07:53:34.399Z,5.9
2022-08-22T07:59:00.387Z,7.2
2022-08-22T08:04:34.931Z,5.9
2022-08-22T08:10:13.018Z,7.2
2022-08-22T08:15:49.457Z,8.4
2022-08-22T08:21:45.747Z,8.4
2022-08-22T08:27:13.258Z,7.2
2022-08-22T08:32:42.009Z,8.4
2022-08-22T08:38:24.867Z,7.2
2022-08-22T08:44:08.366Z,7.2
2022-08-22T08:49:30.788Z,5.9
2022-08-22T08:55:28.032Z,7.2
2022-08-22T09:00:40.425Z,5.9
2022-08-22T09:06:42.341Z,5.9
2022-08-22T09:12:15.916Z,2.4
2022-08-22T09:17:58.597Z,4.8
2022-08-22T09:23:37.078Z,5.9
2022-08-22T09:28:54.437Z,4.8
2022-08-22T09:34:32.682Z,7.2
2022-08-22T09:40:09.821Z,7.2
2022-08-22T09:46:05.864Z,7.2
2022-08-22T09:51:32.067Z,7.2
2022-08-22T09:57:01.970Z,5.9
2022-08-22T10:03:05.678Z,7.2
2022-08-22T10:08:40.832Z,8.4
2022-08-22T10:14:15.454Z,8.4
2022-08-22T10:20:00.484Z,8.4
2022-08-22T10:25:32.800Z,8.4
2022-08-22T10:30:59.469Z,10.7
2022-08-22T10:36:34.965Z,5.9
2022-08-22T10:42:28.388Z,9.6
2022-08-22T10:48:03.939Z,9.6
2022-08-22T10:53:41.309Z,4.8
2022-08-22T10:59:23.331Z,11.9
2022-08-22T11:04:51.993Z,11.9
2022-08-22T11:10:30.078Z,9.6
2022-08-22T11:16:14.577Z,9.6
2022-08-22T11:21:37.581Z,11.9
2022-08-22T11:27:20.828Z,11.9
2022-08-22T11:33:22.063Z,10.7
2022-08-22T11:38:41.762Z,13.2
2022-08-22T11:44:13.219Z,13.2
2022-08-22T11:50:03.049Z,11.9
2022-08-22T11:55:45.429Z,11.9
2022-08-22T12:01:20.977Z,7.2
2022-08-22T12:06:58.180Z,8.4
2022-08-22T12:12:48.801Z,11.9
2022-08-22T12:18:31.903Z,10.7
2022-08-22T12:23:57.139Z,11.9
2022-08-22T12:29:45.915Z,11.9
2022-08-22T12:35:30.481Z,13.2
2022-08-22T12:41:11.998Z,11.9
2022-08-22T12:46:25.458Z,15.6
2022-08-22T12:52:08.686Z,15.6
2022-08-22T12:58:04.136Z,15.6
2022-08-22T13:03:41.916Z,11.9
2022-08-22T13:09:32.584Z,15.6
2022-08-22T13:15:10.715Z,14.4
2022-08-22T13:20:33.322Z,9.6
2022-08-22T13:26:10.079Z,13.2
2022-08-22T13:31:51.385Z,14.4
2022-08-22T13:37:50.022Z,10.7
2022-08-22T13:43:22.302Z,13.2
2022-08-22T13:49:10.349Z,14.4
2022-08-22T13:54:43.775Z,9.6
2022-08-22T14:00:06.836Z,10.7
2022-08-22T14:05:44.820Z,9.6
2022-08-22T14:11:38.483Z,13.2
2022-08-22T14:17:18.998Z,13.2
2022-08-22T14:23:06.730Z,9.6
2022-08-22T14:28:29.295Z,9.6
2022-08-22T14:34:26.736Z,7.2
2022-08-22T14:39:42.791Z,11.9
2022-08-22T14:45:46.109Z,10.7
2022-08-22T14:51:26.555Z,7.2
2022-08-22T14:56:44.055Z,13.2
2022-08-22T15:02:46.893Z,13.2
2022-08-22T15:08:12.642Z,13.2
2022-08-22T15:13:59.461Z,13.2
2022-08-22T15:19:32.094Z,13.2
2022-08-22T15:25:15.864Z,10.7
2022-08-22T15:30:58.245Z,9.6
2022-08-22T15:36:43.189Z,9.6
2022-08-22T15:42:03.421Z,9.6
2022-08-22T15:47:44.224Z,11.9
2022-08-22T15:53:34.092Z,13.2
2022-08-22T15:58:55.578Z,13.2
2022-08-22T16:04:24.563Z,8.4
2022-08-22T16:10:02.684Z,9.6
2022-08-22T16:15:56.820Z,10.7
2022-08-22T16:21:26.722Z,8.4
2022-08-22T16:27:12.566Z,11.9
2022-08-22T16:32:46.531Z,9.6
2022-08-22T16:44:02.945Z,9.6
2022-08-22T16:49:43.426Z,8.4
2022-08-22T17:00:57.814Z,8.4
2022-08-22T17:06:30.218Z,8.4
2022-08-22T17:12:22.824Z,8.4
2022-08-22T17:17:34.643Z,7.2
2022-08-22T17:23:25.136Z,4.8
2022-08-22T17:28:48.302Z,5.9
2022-08-22T17:34:36.103Z,2.4
2022-08-22T17:45:40.511Z,2.4
2022-08-22T17:51:28.407Z,0
2022-08-22T17:57:10.041Z,0
2022-08-22T18:02:42.025Z,0
2022-08-22T18:08:09.199Z,0
2022-08-22T18:13:42.086Z,0
2022-08-22T18:19:14.684Z,0
2022-08-22T18:25:01.389Z,0
2022-08-22T18:30:27.646Z,0
2022-08-22T18:36:24.380Z,4.8
2022-08-22T18:41:49.806Z,0
2022-08-22T18:47:35.022Z,0
2022-08-22T18:53:05.168Z,0
2022-08-22T18:58:28.524Z,0
2022-08-22T19:04:18.892Z,0
2022-08-22T19:09:50.611Z,0
2022-08-22T19:15:27.476Z,0
2022-08-22T19:20:55.895Z,0
2022-08-22T19:26:28.302Z,0
2022-08-22T19:32:11.882Z,3.6
2022-08-22T19:37:35.835Z,8.4
2022-08-22T19:43:23.427Z,8.4
2022-08-22T19:48:48.220Z,8.4
2022-08-22T19:54:40.686Z,8.4
2022-08-22T20:00:03.793Z,9.6
2022-08-22T20:05:45.339Z,9.6
2022-08-22T20:11:07.440Z,8.4
2022-08-22T20:16:58.791Z,8.4
2022-08-22T20:22:14.888Z,8.4
2022-08-22T20:28:07.026Z,10.7
2022-08-22T20:33:49.760Z,9.6
2022-08-22T20:39:09.918Z,9.6
2022-08-22T20:44:59.292Z,11.9
2022-08-22T20:50:22.948Z,9.6
2022-08-22T20:55:49.902Z,9.6
2022-08-22T21:01:34.988Z,8.4
2022-08-22T21:07:08.913Z,8.4
2022-08-22T21:12:40.086Z,9.6
2022-08-22T21:18:31.110Z,9.6
2022-08-22T21:24:00.027Z,8.4
2022-08-22T21:29:34.168Z,7.2
2022-08-22T21:35:23.775Z,11.9
2022-08-22T21:40:37.312Z,8.4
2022-08-22T21:46:28.051Z,4.8
2022-08-22T21:51:53.719Z,2.4
2022-08-22T21:57:35.777Z,2.4
2022-08-22T22:03:19.861Z,0
2022-08-22T22:08:41.935Z,0
2022-08-22T22:14:12.193Z,0
2022-08-22T22:20:07.111Z,0
2022-08-22T22:25:39.310Z,0
2022-08-22T22:30:49.844Z,0
2022-08-22T22:36:50.396Z,0
2022-08-22T22:42:18.123Z,0
2022-08-22T22:47:51.049Z,0
2022-08-22T22:53:19.338Z,0
2022-08-22T22:59:13.298Z,0
2022-08-22T23:04:38.119Z,0
2022-08-22T23:10:21.446Z,0
2022-08-22T23:15:27.420Z,0
2022-08-22T23:21:10.987Z,0
2022-08-22T23:26:44.010Z,0
2022-08-22T23:32:30.265Z,0
2022-08-22T23:37:57.114Z,4.8
2022-08-22T23:43:27.648Z,8.4
2022-08-22T23:49:20.563Z,5.9
2022-08-22T23:54:51.510Z,0
